Portada
METAR-TAF:

METAR-TAF

Aeroports :

Nakhon Si Thammarat, Tailàndia

latitud: 8-32-22N, longitud: 99-56-41E, altitud: 4 m

METAR: manca

Hora: 21:12 (14:12 UTC)

Pronòstic

L'informe es va fer fa 21 hores i 12 minuts, a les 17:00 UTC
Pronòstic vàlid del 28 a les 18 UTC al 29 a les 18 UTC
Vent 3 kt del Oest/Sud-Oest
Visibilitat 10 km o més
Escasses núvols a una alçada de 2000 ft
Temporalment
l' 29 a les 06 UTC al 29 a les 12 UTC
Visibilitat: 5000 m
Núvols disperses a una alçada de 1500 ft
Cel ennuvolat a una alçada de 10000 ft
pluja

TAF: VTSF 281700Z 2818/2918 24003KT 9999 FEW020 TEMPO 2906/2912 5000 RA SCT015 BKN100

Observacions i pronòstics meteorològics de més de 4000 aeroports (METAR i TAF).

Les estacions disponibles són els punts grocs i vermells al mapa.

Posi el ratolí al punt desitjat per veure el nom de l'estació.

Feu clic per veure les observacions i els pronòstics meteorològics.

Per canviar el mapa: feu clic els botons verds amb una creu de color negre per apropar; al botó verd amb un guió per allunyar la imatge; o en les fletxes verdes per a mapes adjacents.


METAR-TAF: